Airfield :
LOGIN :

Register | Disclaimer

   EN    FR    IT 

 










Legend :    VFR   Marginal VFR   IFR   Intensive IFR   Very Intensive IFR
Visi :
Ceiling :
>= 8 km
>= 3000ft
5 to 8 km
1000 to 3000 ft
1500m to 5 km
500 to 1000 ft
800 to 1500m
200 to 500 ft
< 800m
< 200 ft
Symbols :   Thunderstorms  Fog  Heavy snow  Heavy precipitations  Wind > 20 kt
SIGMETs :     Misc.  Thunderstorms  Icing  Turbulence  Mountain Waves  Volcanic Ashes






- Airport Elevation : 182 ft
- IATA code : KCO


LTBQ - Cengiz Topel

CURRENT METAR :
  • 011238Z VRB02KT 9999 SCT030 BKN100 17/16 Q1011 RETSRA NOSIG RMK RWY09 00000KT

EXPIRED METARs :
  • 011150Z 24006KT 170V290 6000 -TSRA FEW020CB BKN030 15/14 Q1012 BECMG TL1230 NSW

TAF TAF LTBQ
Valid from the 01 at 12:00 until the 01 at 21:00 UTC


011040Z 0112/0121 VRB02KT 8000 SCT030 BKN080
TEMPO 0112/0115 29012G30KT -TSRA FEW020CB BKN030
TEMPO 0115/0118 -TSRA FEW020CB BKN030



MET'MAP, your aeronautical weather chart ! - Copyright ORBIFLY December 2007 - Disclaimer

ORBIFLY MET'MAP TEAM :

Programming & Development : Alexandra Zaïnal
Concept & original design : Baudouin d'Aumeries
Assistance for programming : Marc-Olivier Méhu
Technical & hardware support : Manuel Goepfert

Contact : metmap@orbifly.com




SOURCES & CREDITS :

   NOAA